Time,TemperatureF,DewpointF,PressureIn,WindDirection,WindDirectionDegrees,WindSpeedMPH,WindSpeedGustMPH,Humidity,HourlyPrecipIn,Conditions,Clouds,dailyrainin,SoftwareType,DateUTC
2013-06-01 00:05:00,80.2,64.1,29.60,South,180,16.1,-999.0,58,-99.99,,,0.00,Acu-Link.com,2013-06-01 05:05:00,
2013-06-01 00:20:00,79.9,61.7,29.61,South,180,11.9,-999.0,54,-99.99,,,0.00,Acu-Link.com,2013-06-01 05:20:00,
2013-06-01 00:35:00,79.5,59.8,29.62,South,180,5.3,-999.0,51,-99.99,,,0.00,Acu-Link.com,2013-06-01 05:35:00,
2013-06-01 00:50:00,79.2,57.8,29.60,South,180,10.4,-999.0,48,-99.99,,,0.00,Acu-Link.com,2013-06-01 05:50:00,
2013-06-01 01:05:00,79.2,57.2,29.61,ESE,112,8.3,-999.0,47,-99.99,,,0.00,Acu-Link.com,2013-06-01 06:05:00,
2013-06-01 01:21:00,79.0,56.4,29.61,SSE,157,8.3,-999.0,46,-99.99,,,0.00,Acu-Link.com,2013-06-01 06:21:00,
2013-06-01 01:36:00,78.3,54.6,29.61,South,180,6.8,-999.0,44,-99.99,,,0.00,Acu-Link.com,2013-06-01 06:36:00,
2013-06-01 01:51:00,78.4,54.0,29.62,SSE,157,13.0,-999.0,43,-99.99,,,0.00,Acu-Link.com,2013-06-01 06:51:00,
2013-06-01 02:06:00,78.3,52.6,29.61,SSW,202,10.9,-999.0,41,-99.99,,,0.00,Acu-Link.com,2013-06-01 07:06:00,
2013-06-01 02:21:00,77.9,52.9,29.61,South,180,7.8,-999.0,42,-99.99,,,0.00,Acu-Link.com,2013-06-01 07:21:00,
2013-06-01 02:36:00,77.9,54.2,29.61,South,180,11.4,-999.0,44,-99.99,,,0.00,Acu-Link.com,2013-06-01 07:36:00,
2013-06-01 02:51:00,77.7,53.4,29.61,South,180,9.4,-999.0,43,-99.99,,,0.00,Acu-Link.com,2013-06-01 07:51:00,
2013-06-01 03:07:00,77.5,51.9,29.60,South,180,13.0,-999.0,41,-99.99,,,0.00,Acu-Link.com,2013-06-01 08:07:00,
2013-06-01 03:23:00,77.4,51.8,29.60,South,180,10.4,-999.0,41,-99.99,,,0.00,Acu-Link.com,2013-06-01 08:23:00,
2013-06-01 03:38:00,77.4,51.8,29.61,South,180,8.3,-999.0,41,-99.99,,,0.00,Acu-Link.com,2013-06-01 08:38:00,
2013-06-01 03:53:00,76.8,49.3,29.61,SE,135,9.4,-999.0,38,-99.99,,,0.00,Acu-Link.com,2013-06-01 08:53:00,
2013-06-01 04:08:00,76.8,48.5,29.60,SSW,202,8.3,-999.0,37,-99.99,,,0.00,Acu-Link.com,2013-06-01 09:08:00,
2013-06-01 04:24:00,77.0,50.8,29.60,SSW,202,9.4,-999.0,40,-99.99,,,0.00,Acu-Link.com,2013-06-01 09:24:00,
2013-06-01 04:39:00,77.2,53.0,29.60,South,180,7.3,-999.0,43,-99.99,,,0.00,Acu-Link.com,2013-06-01 09:39:00,
2013-06-01 04:54:00,77.2,53.6,29.60,SW,225,16.1,-999.0,44,-99.99,,,0.00,Acu-Link.com,2013-06-01 09:54:00,
2013-06-01 05:09:00,77.0,53.4,29.60,South,180,8.9,-999.0,44,-99.99,,,0.00,Acu-Link.com,2013-06-01 10:09:00,
2013-06-01 05:24:00,76.6,51.8,29.61,SSW,202,7.3,-999.0,42,-99.99,,,0.00,Acu-Link.com,2013-06-01 10:24:00,
2013-06-01 05:39:00,76.6,51.8,29.61,SSW,202,8.9,-999.0,42,-99.99,,,0.00,Acu-Link.com,2013-06-01 10:39:00,
2013-06-01 05:54:00,76.5,52.3,29.62,South,180,9.9,-999.0,43,-99.99,,,0.00,Acu-Link.com,2013-06-01 10:54:00,
2013-06-01 06:09:00,76.5,51.7,29.62,South,180,9.4,-999.0,42,-99.99,,,0.00,Acu-Link.com,2013-06-01 11:09:00,
2013-06-01 06:24:00,76.5,50.4,29.62,SW,225,7.8,-999.0,40,-99.99,,,0.00,Acu-Link.com,2013-06-01 11:24:00,
2013-06-01 06:40:00,76.5,50.4,29.62,South,180,8.9,-999.0,40,-99.99,,,0.00,Acu-Link.com,2013-06-01 11:40:00,
2013-06-01 06:55:00,76.6,50.5,29.63,South,180,6.8,-999.0,40,-99.99,,,0.00,Acu-Link.com,2013-06-01 11:55:00,
2013-06-01 07:10:00,76.6,50.5,29.63,SW,225,7.3,-999.0,40,-99.99,,,0.00,Acu-Link.com,2013-06-01 12:10:00,
2013-06-01 07:25:00,77.4,54.4,29.64,SSW,202,11.4,-999.0,45,-99.99,,,0.00,Acu-Link.com,2013-06-01 12:25:00,
2013-06-01 07:40:00,77.9,56.6,29.64,South,180,7.3,-999.0,48,-99.99,,,0.00,Acu-Link.com,2013-06-01 12:40:00,
2013-06-01 07:55:00,78.4,58.8,29.64,South,180,11.4,-999.0,51,-99.99,,,0.00,Acu-Link.com,2013-06-01 12:55:00,
2013-06-01 08:11:00,80.1,64.5,29.64,SSE,157,8.9,-999.0,59,-99.99,,,0.00,Acu-Link.com,2013-06-01 13:11:00,
2013-06-01 08:26:00,79.3,61.7,29.64,South,180,10.9,-999.0,55,-99.99,,,0.00,Acu-Link.com,2013-06-01 13:26:00,
2013-06-01 08:41:00,79.9,64.3,29.64,SSW,202,12.5,-999.0,59,-99.99,,,0.00,Acu-Link.com,2013-06-01 13:41:00,
2013-06-01 08:56:00,79.7,64.1,29.66,South,180,13.5,-999.0,59,-99.99,,,0.00,Acu-Link.com,2013-06-01 13:56:00,
2013-06-01 09:11:00,80.1,66.3,29.69,SSW,202,7.3,-999.0,63,-99.99,,,0.00,Acu-Link.com,2013-06-01 14:11:00,
2013-06-01 09:26:00,80.8,67.5,29.68,SSW,202,5.8,-999.0,64,-99.99,,,0.00,Acu-Link.com,2013-06-01 14:26:00,
2013-06-01 09:42:00,81.9,69.4,29.70,SW,225,5.8,-999.0,66,-99.99,,,0.00,Acu-Link.com,2013-06-01 14:42:00,
2013-06-01 09:57:00,84.7,72.1,29.69,WSW,247,5.8,-999.0,66,-99.99,,,0.00,Acu-Link.com,2013-06-01 14:57:00,
2013-06-01 10:12:00,85.3,72.2,29.68,SSW,202,6.3,-999.0,65,-99.99,,,0.00,Acu-Link.com,2013-06-01 15:12:00,
2013-06-01 10:27:00,82.9,69.9,29.69,SSW,202,11.9,-999.0,65,-99.99,,,0.00,Acu-Link.com,2013-06-01 15:27:00,
2013-06-01 10:42:00,87.6,72.5,29.69,SSW,202,18.1,-999.0,61,-99.99,,,0.00,Acu-Link.com,2013-06-01 15:42:00,
2013-06-01 10:57:00,85.3,71.7,29.70,SW,225,7.3,-999.0,64,-99.99,,,0.00,Acu-Link.com,2013-06-01 15:57:00,
2013-06-01 11:13:00,85.6,71.5,29.70,South,180,11.9,-999.0,63,-99.99,,,0.00,Acu-Link.com,2013-06-01 16:13:00,
2013-06-01 11:28:00,85.8,71.7,29.71,WSW,247,6.8,-999.0,63,-99.99,,,0.00,Acu-Link.com,2013-06-01 16:28:00,
2013-06-01 11:43:00,85.6,71.5,29.71,South,180,6.3,-999.0,63,-99.99,,,0.00,Acu-Link.com,2013-06-01 16:43:00,
2013-06-01 11:58:00,86.2,71.6,29.71,South,180,5.3,-999.0,62,-99.99,,,0.00,Acu-Link.com,2013-06-01 16:58:00,
2013-06-01 12:13:00,86.7,71.6,29.71,WSW,247,5.3,-999.0,61,-99.99,,,0.00,Acu-Link.com,2013-06-01 17:13:00,
2013-06-01 12:28:00,86.5,71.9,29.71,SSW,202,10.4,-999.0,62,-99.99,,,0.00,Acu-Link.com,2013-06-01 17:28:00,
2013-06-01 12:44:00,88.5,72.3,29.71,SW,225,5.3,-999.0,59,-99.99,,,0.00,Acu-Link.com,2013-06-01 17:44:00,
2013-06-01 12:59:00,87.3,71.7,29.71,SW,225,6.8,-999.0,60,-99.99,,,0.00,Acu-Link.com,2013-06-01 17:59:00,
2013-06-01 13:14:00,88.3,72.1,29.71,South,180,4.2,-999.0,59,-99.99,,,0.00,Acu-Link.com,2013-06-01 18:14:00,
2013-06-01 13:29:00,90.0,73.2,29.71,SSW,202,5.3,-999.0,58,-99.99,,,0.00,Acu-Link.com,2013-06-01 18:29:00,
2013-06-01 13:44:00,90.0,72.2,29.71,SE,135,5.3,-999.0,56,-99.99,,,0.00,Acu-Link.com,2013-06-01 18:44:00,
2013-06-01 13:59:00,91.0,72.6,29.70,South,180,6.3,-999.0,55,-99.99,,,0.00,Acu-Link.com,2013-06-01 18:59:00,
2013-06-01 14:15:00,94.3,73.9,29.70,SSE,157,6.8,-999.0,52,-99.99,,,0.00,Acu-Link.com,2013-06-01 19:15:00,
2013-06-01 14:30:00,90.7,72.3,29.69,SSE,157,5.3,-999.0,55,-99.99,,,0.00,Acu-Link.com,2013-06-01 19:30:00,
2013-06-01 14:45:00,93.0,73.3,29.68,South,180,5.8,-999.0,53,-99.99,,,0.00,Acu-Link.com,2013-06-01 19:45:00,
2013-06-01 15:00:00,93.2,72.9,29.68,South,180,4.7,-999.0,52,-99.99,,,0.00,Acu-Link.com,2013-06-01 20:00:00,
2013-06-01 15:15:00,94.6,73.6,29.68,SSW,202,7.8,-999.0,51,-99.99,,,0.00,Acu-Link.com,2013-06-01 20:15:00,
2013-06-01 15:30:00,92.3,73.2,29.67,South,180,6.3,-999.0,54,-99.99,,,0.00,Acu-Link.com,2013-06-01 20:30:00,
2013-06-01 15:46:00,91.8,73.3,29.68,SSE,157,4.2,-999.0,55,-99.99,,,0.00,Acu-Link.com,2013-06-01 20:46:00,
2013-06-01 16:01:00,90.9,72.5,29.67,South,180,5.3,-999.0,55,-99.99,,,0.00,Acu-Link.com,2013-06-01 21:01:00,
2013-06-01 16:16:00,91.8,73.8,29.67,South,180,5.3,-999.0,56,-99.99,,,0.00,Acu-Link.com,2013-06-01 21:16:00,
2013-06-01 16:31:00,92.1,72.5,29.67,South,180,4.2,-999.0,53,-99.99,,,0.00,Acu-Link.com,2013-06-01 21:31:00,
2013-06-01 16:46:00,92.5,73.4,29.66,SSW,202,2.7,-999.0,54,-99.99,,,0.00,Acu-Link.com,2013-06-01 21:46:00,
2013-06-01 17:01:00,94.1,73.7,29.66,South,180,7.8,-999.0,52,-99.99,,,0.00,Acu-Link.com,2013-06-01 22:01:00,
2013-06-01 17:16:00,92.5,73.4,29.66,South,180,6.3,-999.0,54,-99.99,,,0.00,Acu-Link.com,2013-06-01 22:16:00,
2013-06-01 17:31:00,93.2,73.5,29.65,SSE,157,7.3,-999.0,53,-99.99,,,0.00,Acu-Link.com,2013-06-01 22:31:00,
2013-06-01 17:47:00,94.8,73.8,29.65,SSW,202,4.7,-999.0,51,-99.99,,,0.00,Acu-Link.com,2013-06-01 22:47:00,
2013-06-01 18:02:00,93.7,73.4,29.66,SSW,202,5.8,-999.0,52,-99.99,,,0.00,Acu-Link.com,2013-06-01 23:02:00,
2013-06-01 18:17:00,92.5,73.4,29.67,SSE,157,5.8,-999.0,54,-99.99,,,0.00,Acu-Link.com,2013-06-01 23:17:00,
2013-06-01 18:32:00,91.4,73.5,29.67,South,180,3.7,-999.0,56,-99.99,,,0.00,Acu-Link.com,2013-06-01 23:32:00,
2013-06-01 18:52:00,90.5,72.6,29.67,South,180,3.2,-999.0,56,-99.99,,,0.00,Acu-Link.com,2013-06-01 23:52:00,
2013-06-01 19:08:00,90.5,73.1,29.67,North,0,3.7,-999.0,57,-99.99,,,0.00,Acu-Link.com,2013-06-02 00:08:00,
2013-06-01 19:24:00,86.2,72.1,29.67,North,0,6.8,-999.0,63,-99.99,,,0.00,Acu-Link.com,2013-06-02 00:24:00,
2013-06-01 19:40:00,84.7,70.7,29.69,NNE,22,11.9,-999.0,63,-99.99,,,0.00,Acu-Link.com,2013-06-02 00:40:00,
2013-06-01 19:55:00,84.6,70.6,29.69,NNE,22,6.3,-999.0,63,-99.99,,,0.00,Acu-Link.com,2013-06-02 00:55:00,
2013-06-01 20:10:00,83.8,69.8,29.69,NNW,337,12.5,-999.0,63,-99.99,,,0.00,Acu-Link.com,2013-06-02 01:10:00,
2013-06-01 20:26:00,83.1,69.2,29.71,NNE,22,13.5,-999.0,63,-99.99,,,0.00,Acu-Link.com,2013-06-02 01:26:00,
2013-06-01 20:43:00,82.2,67.9,29.71,NE,45,11.4,-999.0,62,-99.99,,,0.00,Acu-Link.com,2013-06-02 01:43:00,
2013-06-01 20:58:00,82.6,67.3,29.73,NNE,22,11.4,-999.0,60,-99.99,,,0.00,Acu-Link.com,2013-06-02 01:58:00,
2013-06-01 21:13:00,81.0,64.8,29.73,NNE,22,7.3,-999.0,58,-99.99,,,0.00,Acu-Link.com,2013-06-02 02:13:00,
2013-06-01 21:28:00,80.1,63.0,29.73,North,0,8.3,-999.0,56,-99.99,,,0.00,Acu-Link.com,2013-06-02 02:28:00,
2013-06-01 21:43:00,79.3,62.7,29.75,NNE,22,9.9,-999.0,57,-99.99,,,0.00,Acu-Link.com,2013-06-02 02:43:00,
2013-06-01 21:59:00,79.2,63.1,29.76,NNE,22,6.8,-999.0,58,-99.99,,,0.00,Acu-Link.com,2013-06-02 02:59:00,
2013-06-01 22:14:00,78.8,62.8,29.76,NNE,22,6.8,-999.0,58,-99.99,,,0.00,Acu-Link.com,2013-06-02 03:14:00,
2013-06-01 22:29:00,78.1,61.6,29.76,NNE,22,7.3,-999.0,57,-99.99,,,0.00,Acu-Link.com,2013-06-02 03:29:00,
2013-06-01 22:44:00,77.7,61.7,29.77,NNE,22,6.3,-999.0,58,-99.99,,,0.00,Acu-Link.com,2013-06-02 03:44:00,
2013-06-01 22:59:00,77.5,63.0,29.77,NNE,22,5.3,-999.0,61,-99.99,,,0.00,Acu-Link.com,2013-06-02 03:59:00,
2013-06-01 23:14:00,77.7,64.5,29.77,NNE,22,6.3,-999.0,64,-99.99,,,0.00,Acu-Link.com,2013-06-02 04:14:00,
2013-06-01 23:29:00,77.5,64.3,29.78,NW,315,5.8,-999.0,64,-99.99,,,0.00,Acu-Link.com,2013-06-02 04:29:00,
2013-06-01 23:45:00,77.5,64.8,29.79,NNE,22,5.3,-999.0,65,-99.99,,,0.00,Acu-Link.com,2013-06-02 04:45:00,